Time;durP1;ratioP1;P1;durP2;ratioP2;P2;SDS_P1;SDS_P2;PMS_P1;PMS_P2;Temp;Humidity;BMP_temperature;BMP_pressure;BME280_temperature;BME280_humidity;BME280_pressure;Samples;Min_cycle;Max_cycle;Signal;HPM_P1;HPM_P2
2024/01/28 00:00:16;;;;;;;3.10;1.90;;;5.60;99.90;;;;;;7366956;19;20161;-79
2024/01/28 00:02:42;;;;;;;2.03;1.60;;;5.60;99.90;;;;;;7392665;19;20311;-79
2024/01/28 00:05:12;;;;;;;1.60;1.30;;;5.60;99.90;;;;;;7367344;19;20681;-78
2024/01/28 00:07:38;;;;;;;4.03;1.80;;;5.50;99.90;;;;;;7368193;19;20194;-80
2024/01/28 00:10:04;;;;;;;1.53;1.10;;;5.50;99.90;;;;;;7368647;19;20202;-80
2024/01/28 00:12:30;;;;;;;1.83;1.20;;;4.80;99.90;;;;;;7368536;19;20186;-81
2024/01/28 00:14:57;;;;;;;3.73;2.40;;;5.00;99.90;;;;;;7391145;19;20134;-80
2024/01/28 00:17:22;;;;;;;1.40;1.30;;;5.40;99.90;;;;;;7369384;19;20249;-78
2024/01/28 00:19:48;;;;;;;1.20;1.10;;;5.60;99.90;;;;;;7365676;19;20762;-79
2024/01/28 00:22:14;;;;;;;1.03;0.93;;;5.70;99.90;;;;;;7370400;19;20193;-81
2024/01/28 00:24:39;;;;;;;2.50;1.60;;;5.70;99.90;;;;;;7368581;19;20257;-79
2024/01/28 00:27:05;;;;;;;1.10;1.00;;;5.70;99.90;;;;;;7379841;19;20177;-80
2024/01/28 00:29:31;;;;;;;1.53;1.30;;;5.70;99.90;;;;;;7385095;19;20584;-80
2024/01/28 00:31:57;;;;;;;1.53;1.17;;;5.60;99.90;;;;;;7368524;19;20186;-81
2024/01/28 00:34:24;;;;;;;0.80;0.70;;;5.60;99.90;;;;;;7367066;19;20196;-79
2024/01/28 00:36:50;;;;;;;1.80;0.80;;;5.50;99.90;;;;;;7368559;19;20181;-79
2024/01/28 00:39:16;;;;;;;1.30;1.13;;;5.50;99.90;;;;;;7370132;19;20476;-80
2024/01/28 00:41:41;;;;;;;1.87;1.30;;;5.60;99.90;;;;;;7389513;19;20138;-81
2024/01/28 00:44:07;;;;;;;1.67;1.20;;;5.40;99.90;;;;;;7369316;19;20547;-80
2024/01/28 00:46:33;;;;;;;2.00;1.50;;;5.30;99.90;;;;;;7366727;19;20182;-81
2024/01/28 00:48:58;;;;;;;1.43;1.33;;;5.30;99.90;;;;;;7367949;19;20193;-81
2024/01/28 00:51:24;;;;;;;1.47;1.23;;;5.40;99.90;;;;;;7368843;19;20191;-81
2024/01/28 00:53:50;;;;;;;1.30;1.20;;;5.40;99.90;;;;;;7389782;19;20598;-81
2024/01/28 00:56:17;;;;;;;1.90;0.87;;;5.50;99.90;;;;;;7367269;19;20540;-79
2024/01/28 00:58:46;;;;;;;3.23;1.57;;;5.50;99.90;;;;;;7366986;19;20182;-81
2024/01/28 01:01:12;;;;;;;1.37;1.10;;;5.40;99.90;;;;;;7367823;19;21451;-81
2024/01/28 01:03:38;;;;;;;1.10;0.90;;;5.40;99.90;;;;;;7363803;19;20185;-80
2024/01/28 01:06:05;;;;;;;0.77;0.77;;;5.50;99.90;;;;;;7384427;19;20656;-79
2024/01/28 01:08:32;;;;;;;2.63;1.20;;;5.40;99.90;;;;;;7368391;19;20189;-78
2024/01/28 01:10:58;;;;;;;1.90;1.67;;;5.40;99.90;;;;;;7366839;19;20193;-79
2024/01/28 01:13:24;;;;;;;1.77;1.27;;;5.40;99.90;;;;;;7368498;19;20919;-80
2024/01/28 01:15:50;;;;;;;1.43;1.30;;;5.40;99.90;;;;;;7367876;19;20190;-80
2024/01/28 01:18:15;;;;;;;2.67;1.43;;;5.40;99.90;;;;;;7366348;19;20194;-81
2024/01/28 01:20:41;;;;;;;1.60;1.37;;;5.40;99.90;;;;;;7389606;19;20257;-80
2024/01/28 01:23:07;;;;;;;1.83;1.30;;;5.40;99.90;;;;;;7367565;19;20186;-81
2024/01/28 01:25:32;;;;;;;1.17;1.00;;;5.40;99.90;;;;;;7369062;19;20193;-79
2024/01/28 01:27:58;;;;;;;2.97;0.90;;;5.40;99.90;;;;;;7364073;19;20186;-81
2024/01/28 01:30:24;;;;;;;2.13;1.70;;;5.50;99.90;;;;;;7367382;19;20202;-82
2024/01/28 01:32:49;;;;;;;1.00;0.83;;;5.50;99.90;;;;;;7387593;19;20274;-81
2024/01/28 01:35:17;;;;;;;1.47;1.10;;;5.40;99.90;;;;;;7367652;19;20193;-80
2024/01/28 01:37:42;;;;;;;1.60;0.93;;;5.30;99.90;;;;;;7366779;19;20725;-81
2024/01/28 01:40:09;;;;;;;1.13;1.03;;;5.20;99.90;;;;;;7366247;19;20190;-81
2024/01/28 01:42:37;;;;;;;1.20;1.10;;;5.20;99.90;;;;;;7369089;19;20221;-81
2024/01/28 01:45:03;;;;;;;2.53;1.73;;;5.20;99.90;;;;;;7388225;19;20667;-80
2024/01/28 01:47:29;;;;;;;0.83;0.80;;;5.20;99.90;;;;;;7365924;19;20194;-80
2024/01/28 01:49:54;;;;;;;2.90;2.30;;;5.20;99.90;;;;;;7365438;19;20535;-81
2024/01/28 01:52:21;;;;;;;2.20;2.00;;;5.20;99.90;;;;;;7366883;19;20198;-80
2024/01/28 01:54:49;;;;;;;1.60;1.40;;;5.10;99.90;;;;;;7365589;19;20209;-81
2024/01/28 01:57:16;;;;;;;2.23;1.47;;;5.10;99.90;;;;;;7368478;19;20135;-81
2024/01/28 01:59:42;;;;;;;1.03;0.93;;;5.10;99.90;;;;;;7388700;19;20229;-81
2024/01/28 02:02:09;;;;;;;1.70;1.37;;;4.90;99.90;;;;;;7365581;19;20544;-80
2024/01/28 02:04:35;;;;;;;2.27;1.17;;;5.10;99.90;;;;;;7363484;19;20202;-81
2024/01/28 02:07:01;;;;;;;3.03;1.33;;;5.10;99.90;;;;;;7367469;19;20250;-81
2024/01/28 02:09:27;;;;;;;1.23;1.10;;;5.00;99.90;;;;;;7362780;19;20190;-81
2024/01/28 02:11:53;;;;;;;0.90;0.83;;;5.00;99.90;;;;;;7388270;19;20155;-80
2024/01/28 02:14:29;;;;;;;1.47;1.23;;;5.10;99.90;;;;;;7367121;19;20542;-81
2024/01/28 02:17:01;;;;;;;2.07;1.17;;;5.10;99.90;;;;;;7364214;19;20609;-83
2024/01/28 02:19:27;;;;;;;1.30;1.20;;;5.10;99.90;;;;;;7364805;19;20253;-80
2024/01/28 02:21:54;;;;;;;2.47;1.37;;;5.10;99.90;;;;;;7364259;19;20194;-82
2024/01/28 02:24:20;;;;;;;1.30;1.27;;;5.20;99.90;;;;;;7366688;19;20142;-80
2024/01/28 02:26:45;;;;;;;3.80;1.53;;;5.20;99.90;;;;;;7386569;19;20173;-79
2024/01/28 02:29:11;;;;;;;2.47;1.53;;;5.10;99.90;;;;;;7366359;19;20190;-81
2024/01/28 02:31:37;;;;;;;1.00;0.90;;;5.10;99.90;;;;;;7362638;19;20182;-81
2024/01/28 02:34:02;;;;;;;2.97;2.33;;;5.00;99.90;;;;;;7365060;19;20314;-81
2024/01/28 02:36:29;;;;;;;1.83;1.47;;;5.00;99.90;;;;;;7367169;19;20566;-80
2024/01/28 02:38:55;;;;;;;2.23;1.57;;;5.00;99.90;;;;;;7386023;19;20150;-81
2024/01/28 02:41:21;;;;;;;1.77;1.10;;;4.90;99.90;;;;;;7365284;19;20265;-80
2024/01/28 02:43:47;;;;;;;0.93;0.93;;;4.80;99.90;;;;;;7364985;19;20182;-81
2024/01/28 02:46:15;;;;;;;2.17;1.10;;;4.70;99.90;;;;;;7366475;19;20596;-81
2024/01/28 02:48:41;;;;;;;1.33;1.20;;;4.80;99.90;;;;;;7362487;19;20269;-81
2024/01/28 02:51:07;;;;;;;1.20;1.00;;;4.90;99.90;;;;;;7365931;19;20146;-81
2024/01/28 02:53:33;;;;;;;1.03;0.93;;;4.80;99.90;;;;;;7387034;19;20624;-81
2024/01/28 02:56:00;;;;;;;2.50;1.10;;;4.80;99.90;;;;;;7364289;19;20198;-78
2024/01/28 02:58:28;;;;;;;1.33;1.00;;;5.00;99.90;;;;;;7363873;19;20754;-80
2024/01/28 03:00:54;;;;;;;2.23;1.17;;;4.90;99.90;;;;;;7361866;19;20186;-81
2024/01/28 03:03:19;;;;;;;1.03;0.93;;;5.00;99.90;;;;;;7365676;19;20157;-82
2024/01/28 03:05:45;;;;;;;1.13;1.03;;;4.40;99.90;;;;;;7386146;19;20161;-81
2024/01/28 03:08:11;;;;;;;1.40;1.30;;;4.40;99.90;;;;;;7362421;19;20982;-81
2024/01/28 03:10:37;;;;;;;1.00;0.93;;;4.50;99.90;;;;;;7363620;19;20208;-80
2024/01/28 03:13:03;;;;;;;1.20;0.90;;;3.80;99.90;;;;;;7363568;19;20198;-81
2024/01/28 03:15:29;;;;;;;2.30;1.57;;;4.00;99.90;;;;;;7358921;19;20226;-81
2024/01/28 03:17:54;;;;;;;1.63;1.53;;;4.00;99.90;;;;;;7385460;19;20143;-78
2024/01/28 03:20:20;;;;;;;2.17;1.53;;;4.40;99.90;;;;;;7363429;19;20210;-81
2024/01/28 03:22:45;;;;;;;2.20;1.60;;;4.70;99.90;;;;;;7363943;19;20194;-81
2024/01/28 03:25:12;;;;;;;1.03;0.70;;;4.70;99.90;;;;;;7364810;19;20186;-80
2024/01/28 03:27:38;;;;;;;1.63;1.30;;;4.80;99.90;;;;;;7364065;19;20245;-80
2024/01/28 03:30:05;;;;;;;1.07;0.93;;;4.80;99.90;;;;;;7394041;19;20565;-81
2024/01/28 03:32:31;;;;;;;0.77;0.77;;;4.80;99.90;;;;;;7371889;19;20197;-80
2024/01/28 03:34:57;;;;;;;0.70;0.70;;;4.80;99.90;;;;;;7370367;19;20178;-80
2024/01/28 03:37:23;;;;;;;0.77;0.73;;;4.70;99.90;;;;;;7370305;19;20178;-79
2024/01/28 03:39:49;;;;;;;0.73;0.70;;;4.70;99.90;;;;;;7369545;19;20290;-80
2024/01/28 03:42:14;;;;;;;1.43;1.10;;;4.70;99.90;;;;;;7371711;19;20528;-79
2024/01/28 03:44:40;;;;;;;0.80;0.80;;;4.70;99.90;;;;;;7394103;19;20232;-81
2024/01/28 03:47:06;;;;;;;1.50;1.40;;;4.60;99.90;;;;;;7370122;19;20198;-81
2024/01/28 03:49:31;;;;;;;1.30;1.20;;;4.70;99.90;;;;;;7370426;19;20195;-80
2024/01/28 03:51:57;;;;;;;1.73;1.13;;;4.70;99.90;;;;;;7369966;19;20213;-79
2024/01/28 03:54:22;;;;;;;0.90;0.80;;;4.70;99.90;;;;;;7371467;19;20146;-80
2024/01/28 03:56:48;;;;;;;1.77;1.27;;;4.80;99.90;;;;;;7393354;19;20135;-80
2024/01/28 03:59:14;;;;;;;1.37;1.00;;;4.60;99.90;;;;;;7368106;19;20549;-81
2024/01/28 04:01:39;;;;;;;2.40;1.43;;;4.70;99.90;;;;;;7371819;19;20182;-81
2024/01/28 04:04:05;;;;;;;1.40;1.30;;;4.60;99.90;;;;;;7369000;19;20186;-80
2024/01/28 04:06:31;;;;;;;1.27;0.87;;;4.60;99.90;;;;;;7369006;19;20556;-82
2024/01/28 04:08:58;;;;;;;1.07;0.97;;;4.40;99.90;;;;;;7396037;19;20135;-81
2024/01/28 04:11:27;;;;;;;1.47;1.10;;;4.60;99.90;;;;;;7370896;19;20188;-81
2024/01/28 04:13:55;;;;;;;1.10;0.93;;;4.60;99.90;;;;;;7370501;19;20253;-81
2024/01/28 04:16:22;;;;;;;1.27;0.93;;;4.50;99.90;;;;;;7370064;19;20209;-78
2024/01/28 04:18:47;;;;;;;1.90;1.37;;;4.50;99.90;;;;;;7368563;19;20190;-78
2024/01/28 04:21:13;;;;;;;1.37;0.90;;;4.60;99.90;;;;;;7370505;19;20606;-80
2024/01/28 04:23:39;;;;;;;0.70;0.70;;;4.60;99.90;;;;;;7392393;19;20153;-79
2024/01/28 04:26:05;;;;;;;0.83;0.83;;;4.10;99.90;;;;;;7367440;19;20190;-81
2024/01/28 04:28:31;;;;;;;1.27;1.17;;;4.00;99.90;;;;;;7369372;19;20198;-79
2024/01/28 04:30:58;;;;;;;1.17;0.93;;;4.20;99.90;;;;;;7368133;19;20209;-81
2024/01/28 04:33:24;;;;;;;1.27;1.07;;;4.30;99.90;;;;;;7369667;19;20150;-79
2024/01/28 04:35:50;;;;;;;1.00;0.90;;;4.30;99.90;;;;;;7389049;19;20185;-80
2024/01/28 04:38:16;;;;;;;2.03;1.43;;;4.20;99.90;;;;;;7368955;19;20177;-82
2024/01/28 04:40:41;;;;;;;1.23;1.13;;;4.20;99.90;;;;;;7362132;19;20214;-79
2024/01/28 04:43:07;;;;;;;1.40;1.10;;;4.20;99.90;;;;;;7369106;19;20226;-78
2024/01/28 04:45:33;;;;;;;1.37;1.27;;;4.30;99.90;;;;;;7368421;19;20189;-80
2024/01/28 04:47:58;;;;;;;1.23;1.07;;;4.40;99.90;;;;;;7390200;19;20139;-81
2024/01/28 04:50:24;;;;;;;1.83;0.90;;;4.60;99.90;;;;;;7367041;19;20261;-81
2024/01/28 04:52:50;;;;;;;1.73;1.30;;;4.60;99.90;;;;;;7369168;19;20182;-81
2024/01/28 04:55:16;;;;;;;0.60;0.60;;;4.50;99.90;;;;;;7368498;19;20178;-82
2024/01/28 04:57:42;;;;;;;1.37;1.27;;;4.50;99.90;;;;;;7370039;19;20655;-82
2024/01/28 05:00:10;;;;;;;0.73;0.70;;;4.40;99.90;;;;;;7367609;19;20146;-80
2024/01/28 05:02:36;;;;;;;0.63;0.63;;;4.30;99.90;;;;;;7390666;19;20781;-82
2024/01/28 05:05:02;;;;;;;1.37;1.10;;;4.40;99.90;;;;;;7367347;19;20550;-83
2024/01/28 05:07:29;;;;;;;0.80;0.80;;;4.50;99.90;;;;;;7367488;19;20269;-80
2024/01/28 05:09:55;;;;;;;1.00;0.70;;;4.50;99.90;;;;;;7364550;19;20205;-83
2024/01/28 05:12:21;;;;;;;1.47;1.00;;;4.50;99.90;;;;;;7367478;19;20146;-81
2024/01/28 05:14:47;;;;;;;1.33;0.97;;;4.50;99.90;;;;;;7391095;19;20154;-82
2024/01/28 05:17:12;;;;;;;1.20;1.10;;;4.50;99.90;;;;;;7367400;19;20193;-82
2024/01/28 05:19:38;;;;;;;1.37;0.93;;;4.50;99.90;;;;;;7366886;19;20197;-79
2024/01/28 05:22:04;;;;;;;1.47;1.07;;;4.40;99.90;;;;;;7368523;19;20186;-79
2024/01/28 05:24:30;;;;;;;6.47;1.13;;;4.40;99.90;;;;;;7368904;19;20656;-80
2024/01/28 05:26:56;;;;;;;1.40;1.30;;;4.50;99.90;;;;;;7391136;19;20577;-79
2024/01/28 05:29:22;;;;;;;7.87;1.53;;;4.30;99.90;;;;;;7365882;19;20671;-82
2024/01/28 05:31:48;;;;;;;1.47;1.37;;;4.30;99.90;;;;;;7369937;19;20193;-77
2024/01/28 05:34:14;;;;;;;1.03;0.70;;;4.50;99.90;;;;;;7366986;19;20314;-81
2024/01/28 05:36:40;;;;;;;0.77;0.77;;;4.40;99.90;;;;;;7365913;19;20194;-81
2024/01/28 05:39:06;;;;;;;1.63;1.33;;;4.40;99.90;;;;;;7373484;19;20156;-82
2024/01/28 05:41:32;;;;;;;1.43;0.83;;;4.40;99.90;;;;;;7387191;19;20154;-82
2024/01/28 05:43:58;;;;;;;3.70;1.80;;;4.30;99.90;;;;;;7368122;19;20262;-81
2024/01/28 05:46:24;;;;;;;0.70;0.70;;;4.30;99.90;;;;;;7365591;19;20198;-80
2024/01/28 05:48:49;;;;;;;1.20;1.10;;;4.30;99.90;;;;;;7368680;19;20190;-80
2024/01/28 05:51:15;;;;;;;2.53;1.33;;;4.20;99.90;;;;;;7365287;19;20142;-81
2024/01/28 05:53:41;;;;;;;2.70;1.57;;;4.30;99.90;;;;;;7389890;19;20150;-80
2024/01/28 05:56:06;;;;;;;1.97;1.37;;;4.30;99.90;;;;;;7365918;19;20638;-81
2024/01/28 05:58:32;;;;;;;1.10;1.00;;;4.30;99.90;;;;;;7368047;19;20198;-79
2024/01/28 06:01:02;;;;;;;1.00;1.00;;;4.30;99.90;;;;;;7365562;19;20196;-80
2024/01/28 06:03:28;;;;;;;1.13;0.90;;;4.30;99.90;;;;;;7367813;19;20190;-79
2024/01/28 06:05:53;;;;;;;6.30;1.40;;;4.30;99.90;;;;;;7387365;19;20260;-82
2024/01/28 06:08:19;;;;;;;1.47;0.80;;;4.30;99.90;;;;;;7365697;19;20190;-83
2024/01/28 06:10:44;;;;;;;0.80;0.80;;;4.20;99.90;;;;;;7370740;19;20647;-83
2024/01/28 06:13:10;;;;;;;0.43;0.43;;;4.20;99.90;;;;;;7371424;19;20282;-84
2024/01/28 06:15:37;;;;;;;1.20;1.10;;;4.20;99.90;;;;;;7362980;19;20827;-84
2024/01/28 06:18:04;;;;;;;1.47;1.10;;;4.30;99.90;;;;;;7389982;19;20150;-83
2024/01/28 06:20:35;;;;;;;1.40;1.30;;;4.30;99.90;;;;;;7366135;19;20217;-82
2024/01/28 06:23:02;;;;;;;1.40;0.73;;;4.30;99.90;;;;;;7365663;19;20614;-82
2024/01/28 06:25:28;;;;;;;1.03;0.93;;;4.30;99.90;;;;;;7366363;19;20193;-83
2024/01/28 06:27:54;;;;;;;0.87;0.87;;;4.40;99.90;;;;;;7366949;19;20261;-80
2024/01/28 06:30:20;;;;;;;3.00;0.97;;;4.30;99.90;;;;;;7363844;19;20265;-80
2024/01/28 06:32:45;;;;;;;2.47;1.23;;;4.30;99.90;;;;;;7387829;19;20530;-81
2024/01/28 06:35:11;;;;;;;1.83;1.03;;;4.30;99.90;;;;;;7364715;19;20186;-81
2024/01/28 06:37:37;;;;;;;1.00;0.90;;;4.40;99.90;;;;;;7366813;19;20670;-79
2024/01/28 06:40:03;;;;;;;0.90;0.87;;;4.40;99.90;;;;;;7363509;19;20781;-80
2024/01/28 06:42:31;;;;;;;0.97;0.70;;;4.40;99.90;;;;;;7368934;19;20558;-80
2024/01/28 06:44:58;;;;;;;1.97;0.80;;;4.30;99.90;;;;;;7386757;19;20142;-81
2024/01/28 06:47:24;;;;;;;0.93;0.87;;;4.30;99.90;;;;;;7365281;19;20178;-80
2024/01/28 06:49:50;;;;;;;1.13;1.03;;;4.30;99.90;;;;;;7363540;19;20192;-80
2024/01/28 06:52:15;;;;;;;1.00;0.90;;;4.30;99.90;;;;;;7365794;19;20190;-81
2024/01/28 06:54:41;;;;;;;4.53;1.57;;;4.20;99.90;;;;;;7363491;19;20174;-79
2024/01/28 06:57:07;;;;;;;1.30;1.20;;;3.70;99.90;;;;;;7367186;19;20150;-81
2024/01/28 06:59:32;;;;;;;1.50;1.20;;;3.50;99.90;;;;;;7384974;19;20159;-82
2024/01/28 07:01:58;;;;;;;1.27;1.07;;;3.80;99.90;;;;;;7365997;19;20210;-81
2024/01/28 07:04:23;;;;;;;1.90;1.80;;;4.00;99.90;;;;;;7368997;19;20568;-80
2024/01/28 07:06:49;;;;;;;0.77;0.77;;;4.10;99.90;;;;;;7370204;19;20240;-79
2024/01/28 07:09:17;;;;;;;1.27;1.17;;;4.20;99.90;;;;;;7373629;19;20923;-79
2024/01/28 07:11:43;;;;;;;1.93;1.30;;;4.30;99.90;;;;;;7394804;19;20147;-80
2024/01/28 07:14:10;;;;;;;1.07;1.03;;;4.40;99.90;;;;;;7375010;19;20186;-80
2024/01/28 07:16:38;;;;;;;1.00;1.00;;;4.30;99.90;;;;;;7371936;19;20198;-79
2024/01/28 07:19:03;;;;;;;1.77;1.40;;;3.90;99.90;;;;;;7375017;19;20684;-82
2024/01/28 07:21:29;;;;;;;1.90;1.20;;;3.30;99.90;;;;;;7369781;19;20182;-79
2024/01/28 07:23:55;;;;;;;2.03;1.47;;;3.40;99.90;;;;;;7394166;19;20138;-79
2024/01/28 07:26:20;;;;;;;2.20;1.03;;;3.70;99.90;;;;;;7372467;19;20329;-79
2024/01/28 07:28:46;;;;;;;0.97;0.97;;;4.00;99.90;;;;;;7369380;19;20208;-81
2024/01/28 07:31:11;;;;;;;1.30;1.20;;;4.00;99.90;;;;;;7370802;19;20189;-82
2024/01/28 07:33:37;;;;;;;1.03;0.93;;;4.20;99.90;;;;;;7369013;19;20320;-80
2024/01/28 07:36:03;;;;;;;1.00;0.73;;;4.10;99.90;;;;;;7395140;19;20178;-82
2024/01/28 07:38:32;;;;;;;1.43;1.33;;;3.80;99.90;;;;;;7371336;19;20261;-85
2024/01/28 07:40:58;;;;;;;3.07;1.67;;;3.90;99.90;;;;;;7373806;19;20757;-83
2024/01/28 07:43:26;;;;;;;1.30;1.20;;;4.00;99.90;;;;;;7371230;19;20508;-84
2024/01/28 07:45:51;;;;;;;2.00;1.80;;;4.10;99.90;;;;;;7373341;19;20182;-85
2024/01/28 07:48:17;;;;;;;2.70;1.23;;;3.90;99.90;;;;;;7370684;19;20613;-85
2024/01/28 07:50:43;;;;;;;1.83;1.37;;;4.00;99.90;;;;;;7395198;19;20512;-82
2024/01/28 07:53:09;;;;;;;3.10;1.40;;;4.10;99.90;;;;;;7369708;19;20182;-86
2024/01/28 07:55:34;;;;;;;0.93;0.93;;;4.10;99.90;;;;;;7372349;19;20178;-85
2024/01/28 07:58:00;;;;;;;1.63;1.30;;;4.10;99.90;;;;;;7370360;19;20185;-81
2024/01/28 08:00:27;;;;;;;3.60;1.53;;;3.70;99.90;;;;;;7370676;19;20183;-82
2024/01/28 08:02:53;;;;;;;1.00;0.93;;;3.60;99.90;;;;;;7393553;19;20177;-82
2024/01/28 08:05:19;;;;;;;0.90;0.90;;;3.80;99.90;;;;;;7369756;19;20667;-81
2024/01/28 08:07:45;;;;;;;1.17;0.90;;;3.90;99.90;;;;;;7366571;19;20217;-83
2024/01/28 08:10:10;;;;;;;2.00;1.30;;;3.80;99.90;;;;;;7371491;19;21619;-81
2024/01/28 08:12:36;;;;;;;1.30;1.20;;;3.60;99.90;;;;;;7371497;19;20190;-81
2024/01/28 08:15:02;;;;;;;1.80;1.20;;;3.10;99.90;;;;;;7393281;19;20149;-82
2024/01/28 08:17:28;;;;;;;1.70;1.50;;;3.30;99.90;;;;;;7372699;19;20182;-82
2024/01/28 08:19:54;;;;;;;1.80;1.70;;;3.60;99.90;;;;;;7370126;19;20181;-85
2024/01/28 08:22:20;;;;;;;1.53;1.33;;;3.60;99.90;;;;;;7371241;19;20185;-82
2024/01/28 08:24:45;;;;;;;1.93;1.53;;;4.00;99.90;;;;;;7372912;19;20189;-84
2024/01/28 08:27:15;;;;;;;1.93;1.63;;;4.10;99.90;;;;;;7373713;19;20163;-84
2024/01/28 08:29:40;;;;;;;0.97;0.93;;;4.00;99.90;;;;;;7395853;19;20653;-86
2024/01/28 08:32:06;;;;;;;1.03;0.97;;;3.50;99.90;;;;;;7373493;19;20186;-82
2024/01/28 08:34:32;;;;;;;1.83;1.63;;;3.70;99.90;;;;;;7373926;19;20197;-82
2024/01/28 08:36:58;;;;;;;1.03;1.03;;;3.90;99.90;;;;;;7371923;19;20181;-81
2024/01/28 08:39:25;;;;;;;1.40;1.30;;;4.10;99.90;;;;;;7369094;19;20130;-82
2024/01/28 08:41:50;;;;;;;1.17;1.07;;;4.40;99.90;;;;;;7393933;19;20138;-84
2024/01/28 08:44:18;;;;;;;2.10;1.57;;;4.50;99.90;;;;;;7372059;19;20678;-83
2024/01/28 08:46:46;;;;;;;2.40;2.20;;;4.60;99.90;;;;;;7369570;19;20911;-82
2024/01/28 08:49:12;;;;;;;1.10;1.00;;;4.50;99.90;;;;;;7375631;19;20199;-82
2024/01/28 08:51:39;;;;;;;2.53;2.13;;;4.60;99.90;;;;;;7384613;19;20204;-83
2024/01/28 08:54:05;;;;;;;2.40;1.57;;;4.60;99.90;;;;;;7390037;19;20143;-83
2024/01/28 08:56:31;;;;;;;1.77;1.67;;;4.40;99.90;;;;;;7386554;19;20184;-84
2024/01/28 08:58:56;;;;;;;2.10;1.43;;;4.60;99.90;;;;;;7370684;19;20186;-81
2024/01/28 09:01:22;;;;;;;1.60;1.33;;;4.70;99.90;;;;;;7366718;19;20186;-80
2024/01/28 09:03:48;;;;;;;7.07;1.03;;;4.70;99.90;;;;;;7368553;19;20186;-80
2024/01/28 09:06:16;;;;;;;2.97;1.90;;;4.70;99.90;;;;;;7367285;19;20158;-81
2024/01/28 09:08:42;;;;;;;1.30;1.20;;;4.90;99.90;;;;;;7383257;19;20168;-81
2024/01/28 09:11:09;;;;;;;1.73;1.43;;;4.70;99.90;;;;;;7360998;19;20551;-82
2024/01/28 09:13:34;;;;;;;2.67;1.60;;;4.60;99.90;;;;;;7361602;19;20178;-81
2024/01/28 09:16:00;;;;;;;3.10;1.57;;;4.60;99.90;;;;;;7366847;19;20235;-81
2024/01/28 09:18:25;;;;;;;1.67;1.30;;;4.30;99.90;;;;;;7366138;19;20684;-82
2024/01/28 09:20:51;;;;;;;3.00;1.33;;;4.20;99.90;;;;;;7388277;19;20156;-80
2024/01/28 09:23:17;;;;;;;2.17;1.97;;;4.00;99.90;;;;;;7365233;19;20186;-80
2024/01/28 09:25:43;;;;;;;3.63;2.10;;;4.20;99.90;;;;;;7360871;19;20178;-81
2024/01/28 09:28:09;;;;;;;1.90;1.80;;;4.30;99.90;;;;;;7364256;19;20186;-81
2024/01/28 09:30:34;;;;;;;2.00;1.80;;;4.40;99.90;;;;;;7363396;19;20182;-80
2024/01/28 09:33:00;;;;;;;4.00;1.53;;;4.60;99.90;;;;;;7389696;19;20142;-82
2024/01/28 09:35:27;;;;;;;2.50;1.80;;;4.80;99.90;;;;;;7365230;19;20197;-81
2024/01/28 09:37:54;;;;;;;1.50;1.40;;;4.80;99.90;;;;;;7365678;19;20190;-80
2024/01/28 09:40:20;;;;;;;1.67;1.57;;;4.60;99.90;;;;;;7362328;19;20178;-83
2024/01/28 09:43:25;;;;;;;2.90;1.30;;;4.80;99.90;;;;;;7365659;19;20190;-81
2024/01/28 09:45:51;;;;;;;2.07;1.80;;;4.50;99.90;;;;;;7364263;19;20189;-80
2024/01/28 09:48:17;;;;;;;5.67;2.43;;;4.70;99.90;;;;;;7364583;19;20145;-82
2024/01/28 09:50:43;;;;;;;2.40;1.97;;;4.50;99.90;;;;;;7391508;19;20167;-81
2024/01/28 09:53:10;;;;;;;3.00;1.67;;;4.60;99.90;;;;;;7367832;19;20235;-81
2024/01/28 09:55:36;;;;;;;1.33;1.20;;;4.80;99.90;;;;;;7364912;19;20211;-82
2024/01/28 09:58:01;;;;;;;5.03;1.57;;;4.60;99.90;;;;;;7364285;19;20198;-81
2024/01/28 10:00:27;;;;;;;1.73;1.37;;;4.40;99.90;;;;;;7366311;19;20201;-82
2024/01/28 10:02:52;;;;;;;2.37;1.97;;;4.40;99.90;;;;;;7387038;19;20158;-80
2024/01/28 10:05:18;;;;;;;2.57;1.70;;;4.40;99.90;;;;;;7362927;19;20194;-81
2024/01/28 10:07:47;;;;;;;1.40;1.17;;;4.60;99.90;;;;;;7154944;19;4080194;-81
2024/01/28 10:10:15;;;;;;;1.57;1.47;;;4.80;99.90;;;;;;7363864;19;20192;-80
2024/01/28 10:12:41;;;;;;;1.77;1.30;;;4.80;99.90;;;;;;7365901;19;20199;-81
2024/01/28 10:15:17;;;;;;;1.53;1.43;;;4.90;99.90;;;;;;7367367;19;20501;-80
2024/01/28 10:17:48;;;;;;;1.73;1.57;;;4.90;99.90;;;;;;7389503;19;20584;-81
2024/01/28 10:20:18;;;;;;;2.50;1.63;;;4.90;99.90;;;;;;7364196;19;20224;-82
2024/01/28 10:22:44;;;;;;;2.60;1.70;;;5.10;99.90;;;;;;7365602;19;20189;-81
2024/01/28 10:25:12;;;;;;;2.60;1.83;;;5.00;99.90;;;;;;7367121;19;20570;-82
2024/01/28 10:27:38;;;;;;;1.97;1.37;;;5.00;99.90;;;;;;7364066;19;20194;-82
2024/01/28 10:30:05;;;;;;;1.47;1.37;;;5.00;99.90;;;;;;7389181;19;20138;-82
2024/01/28 10:32:31;;;;;;;1.47;1.37;;;5.10;99.90;;;;;;7366609;19;20237;-82
2024/01/28 10:34:56;;;;;;;1.77;1.53;;;5.30;99.90;;;;;;7366055;19;20186;-84
2024/01/28 10:37:25;;;;;;;3.27;1.90;;;5.80;99.90;;;;;;7361936;19;20672;-81
2024/01/28 10:39:59;;;;;;;1.47;1.30;;;6.20;99.90;;;;;;7362067;19;20218;-85
2024/01/28 10:42:26;;;;;;;2.57;2.17;;;6.60;99.90;;;;;;7365415;19;20199;-81
2024/01/28 10:44:55;;;;;;;2.03;1.43;;;7.00;99.90;;;;;;7386795;19;20194;-82
2024/01/28 10:47:25;;;;;;;1.73;1.57;;;7.20;99.90;;;;;;7364421;19;20178;-81
2024/01/28 10:49:57;;;;;;;2.03;1.67;;;7.40;99.90;;;;;;7361828;19;20530;-82
2024/01/28 10:52:23;;;;;;;1.67;1.57;;;7.60;99.90;;;;;;7365770;19;20534;-83
2024/01/28 10:54:50;;;;;;;1.97;1.53;;;7.70;99.90;;;;;;7365522;19;20760;-80
2024/01/28 10:57:16;;;;;;;2.23;1.73;;;7.60;99.90;;;;;;7367227;19;20514;-82
2024/01/28 10:59:43;;;;;;;1.33;1.17;;;7.80;99.90;;;;;;7385935;19;20181;-80
2024/01/28 11:02:09;;;;;;;1.53;1.43;;;8.00;99.90;;;;;;7365079;19;20245;-80
2024/01/28 11:04:35;;;;;;;2.43;2.10;;;8.10;99.90;;;;;;7362313;19;20198;-81
2024/01/28 11:07:02;;;;;;;2.17;1.87;;;8.10;99.90;;;;;;7363054;19;20190;-81
2024/01/28 11:09:28;;;;;;;2.63;1.57;;;8.20;99.90;;;;;;7364019;19;20185;-81
2024/01/28 11:11:56;;;;;;;1.73;1.40;;;8.30;99.90;;;;;;7385851;19;20145;-81
2024/01/28 11:14:25;;;;;;;1.93;1.73;;;8.30;99.90;;;;;;7364823;19;20652;-82
2024/01/28 11:16:50;;;;;;;2.07;1.73;;;8.30;99.90;;;;;;7362384;19;20261;-81
2024/01/28 11:19:16;;;;;;;2.20;1.93;;;8.40;99.90;;;;;;7366048;19;20269;-81
2024/01/28 11:21:51;;;;;;;1.47;1.37;;;8.30;99.90;;;;;;7362230;19;20644;-81
2024/01/28 11:24:18;;;;;;;2.73;1.57;;;8.40;99.90;;;;;;7364523;19;20158;-81
2024/01/28 11:26:47;;;;;;;1.63;1.20;;;8.40;99.90;;;;;;7387253;19;20214;-81
2024/01/28 11:29:15;;;;;;;2.63;2.03;;;8.60;99.90;;;;;;7363928;19;20190;-81
2024/01/28 11:31:42;;;;;;;1.50;1.40;;;8.70;99.90;;;;;;7364707;19;20206;-82
2024/01/28 11:34:17;;;;;;;2.00;1.67;;;8.70;99.90;;;;;;7364521;19;20186;-79
2024/01/28 11:36:47;;;;;;;3.23;2.13;;;9.00;99.90;;;;;;7362268;19;20195;-82
2024/01/28 11:39:15;;;;;;;2.10;1.47;;;9.10;99.90;;;;;;7366111;19;20484;-83
2024/01/28 11:41:43;;;;;;;4.10;2.13;;;9.10;99.90;;;;;;7384128;19;20155;-81
2024/01/28 11:44:09;;;;;;;1.50;1.40;;;9.20;99.90;;;;;;7365160;19;20186;-80
2024/01/28 11:46:43;;;;;;;1.73;1.50;;;9.30;99.90;;;;;;7362021;19;20192;-82
2024/01/28 11:49:09;;;;;;;3.50;1.90;;;9.40;99.90;;;;;;7367009;19;20182;-82
2024/01/28 11:51:35;;;;;;;2.57;2.07;;;9.50;99.90;;;;;;7369697;19;20649;-81
2024/01/28 11:54:03;;;;;;;1.83;1.27;;;9.50;99.90;;;;;;7392908;19;20131;-83
2024/01/28 11:56:33;;;;;;;2.20;1.57;;;9.70;99.90;;;;;;7371380;19;20189;-81
2024/01/28 11:58:59;;;;;;;1.37;1.27;;;9.80;99.90;;;;;;7371401;19;20257;-82
2024/01/28 12:01:25;;;;;;;1.33;1.13;;;9.80;99.90;;;;;;7368462;19;20635;-80
2024/01/28 12:03:54;;;;;;;1.40;1.17;;;9.70;99.90;;;;;;7370232;19;20818;-81
2024/01/28 12:06:21;;;;;;;2.23;1.63;;;9.90;99.90;;;;;;7369537;19;20147;-78
2024/01/28 12:08:47;;;;;;;1.80;1.60;;;10.00;99.90;;;;;;7394085;19;20146;-83
2024/01/28 12:11:18;;;;;;;1.97;1.20;;;10.00;99.90;;;;;;7366825;19;20194;-82
2024/01/28 12:13:44;;;;;;;1.43;1.33;;;9.90;99.90;;;;;;7370045;19;20182;-80
2024/01/28 12:16:11;;;;;;;1.30;1.20;;;10.10;99.90;;;;;;7371157;19;20355;-81
2024/01/28 12:18:38;;;;;;;1.80;1.37;;;10.10;99.90;;;;;;7369268;19;20189;-82
2024/01/28 12:21:05;;;;;;;1.60;1.30;;;10.40;99.90;;;;;;7394005;19;20165;-82
2024/01/28 12:23:31;;;;;;;2.07;1.67;;;10.60;99.90;;;;;;7373297;19;20205;-83
2024/01/28 12:25:58;;;;;;;2.10;1.13;;;10.90;99.90;;;;;;7367607;19;20182;-82
2024/01/28 12:28:25;;;;;;;1.80;1.50;;;11.50;99.90;;;;;;7368514;19;20196;-80
2024/01/28 12:30:54;;;;;;;2.20;1.05;;;12.00;99.90;;;;;;7367864;19;20227;-81
2024/01/28 12:33:20;;;;;;;1.90;1.20;;;12.20;99.90;;;;;;7369488;19;20218;-80
2024/01/28 12:35:46;;;;;;;1.10;1.00;;;12.20;99.90;;;;;;7390800;19;20138;-81
2024/01/28 12:38:12;;;;;;;2.43;1.33;;;12.20;99.90;;;;;;7370163;19;20186;-81
2024/01/28 12:40:37;;;;;;;2.37;1.50;;;12.00;99.90;;;;;;7367067;19;20185;-80
2024/01/28 12:43:03;;;;;;;1.80;1.30;;;11.80;99.90;;;;;;7367806;19;20192;-80
2024/01/28 12:45:29;;;;;;;1.40;1.23;;;11.70;99.90;;;;;;7370017;19;20188;-81
2024/01/28 12:47:55;;;;;;;3.47;1.90;;;11.60;99.90;;;;;;7389879;19;20155;-81
2024/01/28 12:50:21;;;;;;;1.37;1.00;;;11.70;99.90;;;;;;7368179;19;20568;-80